Time;durP1;ratioP1;P1;durP2;ratioP2;P2;SDS_P1;SDS_P2;PMS_P1;PMS_P2;Temp;Humidity;BMP_temperature;BMP_pressure;BME280_temperature;BME280_humidity;BME280_pressure;Samples;Min_cycle;Max_cycle;Signal;HPM_P1;HPM_P2
2021/06/03 00:00:15;;;;;;;2.42;1.55;;;32.10;95.60;;;;;;4996193;28;20210;-96
2021/06/03 00:02:46;;;;;;;3.08;1.30;;;32.20;95.00;;;;;;5000964;28;20289;-95
2021/06/03 00:05:20;;;;;;;4.30;1.50;;;32.50;95.80;;;;;;5015330;28;20217;-95
2021/06/03 00:07:51;;;;;;;4.15;1.80;;;32.90;96.10;;;;;;5016180;28;20229;-95
2021/06/03 00:10:29;;;;;;;2.00;1.50;;;32.40;94.60;;;;;;5016052;28;20213;-95
2021/06/03 00:13:01;;;;;;;4.07;1.65;;;32.70;96.30;;;;;;5016513;28;20239;-95
2021/06/03 00:15:31;;;;;;;4.32;1.73;;;32.50;94.50;;;;;;5014364;28;20213;-95
2021/06/03 00:18:03;;;;;;;1.50;1.27;;;32.70;94.70;;;;;;5017871;28;20490;-92
2021/06/03 00:20:36;;;;;;;2.10;1.40;;;32.50;94.90;;;;;;4997189;28;20207;-93
2021/06/03 00:23:06;;;;;;;2.17;1.50;;;32.00;95.50;;;;;;5011289;28;20682;-95
2021/06/03 00:25:39;;;;;;;3.97;0.90;;;31.80;95.20;;;;;;5018177;28;20324;-95
2021/06/03 00:28:10;;;;;;;2.28;1.33;;;32.00;95.70;;;;;;5018328;28;20320;-95
2021/06/03 00:30:41;;;;;;;2.25;1.05;;;32.30;96.00;;;;;;5020116;28;20273;-94
2021/06/03 00:33:11;;;;;;;3.63;1.00;;;32.40;96.60;;;;;;5029816;28;20191;-96
2021/06/03 00:35:42;;;;;;;1.92;0.90;;;32.30;95.40;;;;;;5017089;28;20287;-95
2021/06/03 00:38:13;;;;;;;1.40;1.00;;;32.20;96.30;;;;;;5000332;28;20198;-95
2021/06/03 00:40:45;;;;;;;3.65;1.05;;;32.30;96.30;;;;;;5027504;28;20208;-94
2021/06/03 00:43:16;;;;;;;1.92;0.90;;;32.10;95.90;;;;;;5035668;28;20193;-95
2021/06/03 00:45:47;;;;;;;2.85;1.00;;;32.10;96.30;;;;;;5030724;28;20210;-95
2021/06/03 00:48:18;;;;;;;2.25;1.00;;;32.30;95.60;;;;;;5030155;28;20237;-94
2021/06/03 00:50:51;;;;;;;3.50;1.13;;;32.40;95.40;;;;;;5025829;28;20644;-94
2021/06/03 00:53:22;;;;;;;2.15;1.08;;;32.70;95.70;;;;;;5016885;28;20240;-94
2021/06/03 00:55:57;;;;;;;3.28;0.90;;;33.10;95.40;;;;;;5015618;28;20668;-95
2021/06/03 00:58:30;;;;;;;2.25;1.00;;;33.40;94.90;;;;;;5016221;28;20269;-94
2021/06/03 01:01:02;;;;;;;2.42;1.23;;;33.50;94.90;;;;;;5018366;28;20304;-91
2021/06/03 01:03:34;;;;;;;1.75;1.00;;;33.40;95.20;;;;;;5018435;28;20237;-94
2021/06/03 01:06:07;;;;;;;1.75;0.85;;;33.50;94.40;;;;;;5016612;28;20259;-94
2021/06/03 01:08:42;;;;;;;1.85;1.08;;;33.90;94.40;;;;;;5017070;28;20229;-94
2021/06/03 01:11:17;;;;;;;1.85;0.90;;;33.90;94.10;;;;;;5018314;28;20232;-93
2021/06/03 01:13:56;;;;;;;2.03;1.00;;;34.40;94.00;;;;;;5031923;28;20385;-93
2021/06/03 01:16:29;;;;;;;1.58;0.90;;;34.20;94.10;;;;;;5027566;28;20210;-94
2021/06/03 01:19:04;;;;;;;1.42;1.05;;;34.60;93.80;;;;;;5024932;28;20230;-94
2021/06/03 01:21:39;;;;;;;2.90;0.90;;;34.60;93.60;;;;;;5005293;28;20194;-94
2021/06/03 01:24:25;;;;;;;1.45;0.98;;;34.60;93.60;;;;;;5003691;28;20240;-94
2021/06/03 01:26:59;;;;;;;3.25;1.00;;;34.90;93.00;;;;;;5015687;28;20209;-92
2021/06/03 01:29:37;;;;;;;1.33;0.80;;;35.10;92.50;;;;;;5016886;28;20285;-93
2021/06/03 01:32:08;;;;;;;1.45;0.90;;;34.60;92.60;;;;;;5015955;28;20259;-93
2021/06/03 01:34:39;;;;;;;2.42;0.95;;;34.20;92.50;;;;;;5015970;28;20249;-94
2021/06/03 01:37:11;;;;;;;1.98;1.00;;;34.20;92.50;;;;;;5017185;28;20217;-92
2021/06/03 01:39:45;;;;;;;2.10;1.10;;;34.10;93.10;;;;;;5017710;28;20205;-94
2021/06/03 01:42:18;;;;;;;3.50;1.13;;;34.00;92.90;;;;;;5019388;28;21096;-93
2021/06/03 01:44:50;;;;;;;1.83;0.80;;;34.00;93.00;;;;;;5019577;28;20213;-93
2021/06/03 01:47:20;;;;;;;1.73;0.70;;;33.90;92.80;;;;;;5020109;28;20252;-93
2021/06/03 01:49:51;;;;;;;1.00;0.70;;;33.60;92.70;;;;;;5019775;28;20214;-93
2021/06/03 01:52:23;;;;;;;1.67;0.80;;;33.30;93.20;;;;;;5020250;28;20579;-93
2021/06/03 01:54:56;;;;;;;4.75;0.80;;;33.10;93.10;;;;;;5033770;28;20188;-94
2021/06/03 01:57:27;;;;;;;3.60;0.80;;;33.10;92.80;;;;;;5035936;28;20221;-94
2021/06/03 01:59:58;;;;;;;2.15;0.70;;;32.70;93.20;;;;;;5025833;28;20206;-93
2021/06/03 02:02:29;;;;;;;1.48;0.77;;;32.80;93.20;;;;;;5019513;28;20297;-93
2021/06/03 02:05:01;;;;;;;3.25;1.00;;;32.70;93.30;;;;;;5001019;28;20228;-93
2021/06/03 02:07:31;;;;;;;2.33;1.00;;;32.40;93.70;;;;;;5018517;28;20244;-93
2021/06/03 02:10:06;;;;;;;2.55;0.90;;;32.20;93.10;;;;;;5017117;28;20232;-93
2021/06/03 02:12:48;;;;;;;4.63;0.80;;;31.90;93.70;;;;;;5019389;28;20573;-93
2021/06/03 02:15:19;;;;;;;2.30;0.88;;;31.80;94.10;;;;;;4997198;28;20242;-93
2021/06/03 02:17:55;;;;;;;1.45;0.80;;;31.90;94.00;;;;;;5013461;28;20205;-93
2021/06/03 02:20:31;;;;;;;4.07;0.80;;;32.00;93.70;;;;;;5017257;28;20288;-93
2021/06/03 02:23:03;;;;;;;2.80;1.08;;;31.60;94.00;;;;;;5018228;28;20237;-93
2021/06/03 02:25:36;;;;;;;2.28;1.00;;;31.70;94.00;;;;;;5018054;28;20347;-93
2021/06/03 02:28:18;;;;;;;2.42;1.10;;;31.80;94.10;;;;;;5021873;28;20296;-96
2021/06/03 02:30:50;;;;;;;2.35;0.90;;;31.50;94.00;;;;;;5030854;28;20229;-96
2021/06/03 02:33:22;;;;;;;3.15;0.98;;;30.50;94.80;;;;;;5034647;28;20276;-96
2021/06/03 02:36:34;;;;;;;3.55;0.93;;;29.20;96.00;;;;;;5033761;28;20201;-96
2021/06/03 02:39:53;;;;;;;2.37;0.87;;;28.50;96.50;;;;;;4997716;28;20214;-96
2021/06/03 02:42:29;;;;;;;2.73;0.77;;;27.60;97.50;;;;;;4959365;28;20197;-95
2021/06/03 02:45:01;;;;;;;3.80;0.73;;;26.80;98.30;;;;;;4943549;29;20220;-96
2021/06/03 02:47:32;;;;;;;4.80;1.17;;;26.30;98.60;;;;;;4957596;28;20204;-96
2021/06/03 02:50:04;;;;;;;2.33;1.00;;;25.90;99.20;;;;;;4961310;28;20259;-96
2021/06/03 03:08:44;;;;;;;3.40;0.67;;;24.30;99.90;;;;;;5609160;23;20251;-96
2021/06/03 03:16:35;;;;;;;1.77;0.77;;;23.80;99.90;;;;;;5714030;22;20672;-96
2021/06/03 03:19:21;;;;;;;1.33;0.90;;;23.60;99.90;;;;;;5038631;28;20243;-96
2021/06/03 03:21:54;;;;;;;2.93;0.80;;;23.50;99.90;;;;;;5022351;28;20220;-96
2021/06/03 03:24:28;;;;;;;3.33;0.60;;;23.30;99.90;;;;;;5043955;28;20233;-96
2021/06/03 03:27:12;;;;;;;2.77;0.80;;;23.10;99.90;;;;;;5030578;28;20197;-96
2021/06/03 03:29:43;;;;;;;3.77;0.60;;;23.00;99.90;;;;;;5055561;28;20273;-96
2021/06/03 03:32:14;;;;;;;3.20;0.80;;;22.90;99.90;;;;;;5032751;28;20216;-96
2021/06/03 03:37:31;;;;;;;4.47;1.10;;;22.70;99.90;;;;;;5140444;23;20244;-96
2021/06/03 03:42:43;;;;;;;3.67;1.40;;;22.40;99.90;;;;;;5194831;22;20220;-96
2021/06/03 03:45:16;;;;;;;2.57;0.90;;;22.10;99.90;;;;;;5037164;28;20220;-96
2021/06/03 03:47:48;;;;;;;2.87;1.00;;;21.90;99.90;;;;;;5040844;28;20197;-96
2021/06/03 03:50:23;;;;;;;2.60;1.17;;;21.80;99.90;;;;;;5034649;28;20201;-96
2021/06/03 04:03:47;;;;;;;3.00;0.80;;;21.10;99.90;;;;;;5457441;23;20634;-96
2021/06/03 04:06:18;;;;;;;4.23;1.57;;;21.00;99.90;;;;;;5048247;28;20227;-96
2021/06/03 04:08:50;;;;;;;6.50;2.07;;;20.80;99.90;;;;;;5049569;28;20229;-96
2021/06/03 04:11:24;;;;;;;5.23;1.10;;;20.70;99.90;;;;;;5049524;28;20208;-96
2021/06/03 04:13:59;;;;;;;4.77;1.10;;;20.60;99.90;;;;;;5041117;28;20188;-96
2021/06/03 04:16:31;;;;;;;3.83;1.00;;;20.50;99.90;;;;;;5055445;28;20193;-95
2021/06/03 04:19:05;;;;;;;5.90;1.17;;;20.40;99.90;;;;;;5055910;28;20229;-96
2021/06/03 04:21:36;;;;;;;6.13;1.13;;;20.20;99.90;;;;;;5043753;28;20205;-96
2021/06/03 04:24:09;;;;;;;2.93;1.00;;;20.10;99.90;;;;;;5024127;28;20228;-96
2021/06/03 04:26:42;;;;;;;3.47;0.90;;;20.00;99.90;;;;;;5050661;28;20204;-96
2021/06/03 04:29:15;;;;;;;3.67;1.00;;;19.90;99.90;;;;;;5031906;28;20272;-96
2021/06/03 04:31:47;;;;;;;4.47;0.83;;;19.80;99.90;;;;;;5031170;28;20229;-96
2021/06/03 04:34:21;;;;;;;5.43;1.00;;;19.70;99.90;;;;;;5034229;28;20209;-96
2021/06/03 04:36:52;;;;;;;4.30;0.93;;;19.50;99.90;;;;;;5023012;28;20213;-96
2021/06/03 04:39:25;;;;;;;3.57;1.10;;;19.40;99.90;;;;;;5032835;28;20215;-96
2021/06/03 04:41:57;;;;;;;3.47;1.10;;;19.40;99.90;;;;;;5046937;28;20578;-95
2021/06/03 04:44:29;;;;;;;5.13;0.93;;;19.40;99.90;;;;;;5047449;28;20231;-96
2021/06/03 04:47:00;;;;;;;4.50;1.23;;;19.20;99.90;;;;;;5032520;28;20205;-96
2021/06/03 04:49:34;;;;;;;2.93;1.07;;;19.10;99.90;;;;;;5020482;28;20725;-96
2021/06/03 04:54:49;;;;;;;3.07;1.17;;;18.90;99.90;;;;;;5030219;28;20259;-96
2021/06/03 04:57:20;;;;;;;3.70;0.90;;;18.80;99.90;;;;;;5041825;28;20224;-96
2021/06/03 04:59:51;;;;;;;2.70;0.90;;;18.70;99.90;;;;;;5041273;28;20266;-96
2021/06/03 05:02:22;;;;;;;5.03;1.13;;;18.60;99.90;;;;;;5024315;28;20240;-96
2021/06/03 05:04:56;;;;;;;5.70;1.20;;;18.50;99.90;;;;;;5020711;28;20271;-95
2021/06/03 05:07:27;;;;;;;2.87;0.90;;;18.50;99.90;;;;;;5038589;28;20200;-96
2021/06/03 05:10:04;;;;;;;3.60;0.80;;;18.40;99.90;;;;;;5036772;28;20229;-96
2021/06/03 05:12:36;;;;;;;4.00;1.00;;;18.40;99.90;;;;;;5036780;28;20688;-96
2021/06/03 05:15:09;;;;;;;4.20;1.10;;;18.30;99.90;;;;;;5036687;28;20229;-96
2021/06/03 05:17:40;;;;;;;3.80;0.87;;;18.30;99.90;;;;;;5031041;28;20225;-95
2021/06/03 05:23:53;;;;;;;3.43;1.30;;;18.10;99.90;;;;;;5050527;28;20213;-96
2021/06/03 05:26:27;;;;;;;3.60;0.97;;;18.10;99.90;;;;;;5055445;28;20212;-96
2021/06/03 05:28:57;;;;;;;5.93;1.20;;;18.00;99.90;;;;;;5055385;28;20264;-96
2021/06/03 05:31:30;;;;;;;4.00;0.90;;;18.00;99.90;;;;;;5056829;28;20217;-96
2021/06/03 05:34:01;;;;;;;4.50;1.10;;;18.00;99.90;;;;;;5057128;28;20219;-96
2021/06/03 05:36:32;;;;;;;4.43;0.90;;;18.00;99.90;;;;;;5039703;28;20279;-96
2021/06/03 05:39:06;;;;;;;5.23;1.40;;;18.00;99.90;;;;;;5055699;28;20228;-96
2021/06/03 05:41:38;;;;;;;3.33;0.87;;;17.90;99.90;;;;;;5050967;28;20209;-95
2021/06/03 05:44:10;;;;;;;2.53;0.80;;;17.90;99.90;;;;;;5046192;28;20238;-96
2021/06/03 05:46:41;;;;;;;7.73;1.33;;;17.90;99.90;;;;;;5016486;28;20202;-96
2021/06/03 05:49:13;;;;;;;5.10;1.63;;;17.80;99.90;;;;;;5021596;28;20284;-96
2021/06/03 05:51:44;;;;;;;4.83;1.43;;;17.80;99.90;;;;;;5046515;28;20267;-96
2021/06/03 05:54:18;;;;;;;2.70;0.83;;;17.70;99.90;;;;;;5047641;28;20208;-96
2021/06/03 05:56:49;;;;;;;2.77;0.97;;;17.80;99.90;;;;;;5049757;28;20205;-96
2021/06/03 05:59:20;;;;;;;4.47;1.00;;;17.70;99.90;;;;;;5042411;28;20225;-96
2021/06/03 06:01:57;;;;;;;2.77;0.80;;;17.70;99.90;;;;;;5041426;28;20189;-96
2021/06/03 06:07:17;;;;;;;2.50;0.93;;;17.60;99.90;;;;;;5059078;28;20204;-96
2021/06/03 06:09:54;;;;;;;3.87;0.87;;;17.70;99.90;;;;;;5058768;28;20256;-96
2021/06/03 06:12:27;;;;;;;3.70;1.20;;;17.60;99.90;;;;;;5048434;28;20213;-96
2021/06/03 06:14:57;;;;;;;7.53;1.30;;;17.60;99.90;;;;;;5033324;28;20218;-96
2021/06/03 06:17:29;;;;;;;5.47;1.40;;;17.60;99.90;;;;;;5031337;28;20216;-96
2021/06/03 06:20:00;;;;;;;2.70;0.90;;;17.50;99.90;;;;;;5008415;28;20240;-96
2021/06/03 06:22:30;;;;;;;2.27;0.77;;;17.50;99.90;;;;;;5020453;28;20233;-96
2021/06/03 06:25:04;;;;;;;3.73;0.90;;;17.50;99.90;;;;;;5031726;28;20272;-96
2021/06/03 06:27:35;;;;;;;5.03;0.90;;;17.50;99.90;;;;;;5053911;28;20216;-96
2021/06/03 06:30:08;;;;;;;3.93;1.17;;;17.50;99.90;;;;;;5033908;28;20264;-96
2021/06/03 06:32:42;;;;;;;6.03;1.40;;;17.50;99.90;;;;;;5038442;28;20255;-96
2021/06/03 06:35:14;;;;;;;4.63;1.00;;;17.40;99.90;;;;;;5038537;28;20186;-96
2021/06/03 06:37:46;;;;;;;4.10;1.30;;;17.40;99.90;;;;;;5059139;28;20201;-96
2021/06/03 06:40:20;;;;;;;1.93;1.03;;;17.40;99.90;;;;;;5041904;28;20193;-96
2021/06/03 06:42:56;;;;;;;5.60;1.23;;;17.30;99.90;;;;;;5053878;28;20213;-96
2021/06/03 06:45:29;;;;;;;4.97;1.30;;;17.30;99.90;;;;;;5035152;28;20231;-96
2021/06/03 06:48:05;;;;;;;5.30;1.40;;;17.30;99.90;;;;;;5053449;28;20211;-96
2021/06/03 06:50:39;;;;;;;3.23;1.00;;;17.30;99.90;;;;;;5053503;28;20255;-96
2021/06/03 06:56:02;;;;;;;3.27;1.10;;;17.20;99.90;;;;;;5044443;28;20209;-96
2021/06/03 06:58:34;;;;;;;4.83;1.27;;;17.10;99.90;;;;;;5027879;28;20213;-96
2021/06/03 07:01:04;;;;;;;4.07;1.10;;;17.10;99.90;;;;;;5040900;28;20244;-96
2021/06/03 07:03:36;;;;;;;4.57;1.13;;;17.10;99.90;;;;;;5032970;28;20256;-96
2021/06/03 07:06:07;;;;;;;4.50;1.07;;;17.10;99.90;;;;;;5023105;28;20208;-96
2021/06/03 07:08:39;;;;;;;2.77;0.90;;;17.10;99.90;;;;;;5023901;28;20568;-96
2021/06/03 07:11:12;;;;;;;4.53;1.30;;;17.00;99.90;;;;;;4991891;28;20233;-96
2021/06/03 07:13:43;;;;;;;3.70;0.93;;;17.00;99.90;;;;;;5007354;28;20240;-96
2021/06/03 07:16:17;;;;;;;3.33;0.93;;;17.00;99.90;;;;;;5028933;28;20217;-96
2021/06/03 07:18:50;;;;;;;5.80;1.07;;;17.00;99.90;;;;;;5034101;28;20218;-94
2021/06/03 07:21:20;;;;;;;5.30;1.00;;;17.00;99.90;;;;;;5040356;28;20210;-95
2021/06/03 07:23:51;;;;;;;4.37;1.03;;;17.00;99.90;;;;;;5037889;28;20248;-96
2021/06/03 07:26:24;;;;;;;3.73;1.10;;;16.90;99.90;;;;;;5054083;28;20219;-96
2021/06/03 07:28:56;;;;;;;3.50;1.10;;;17.00;99.90;;;;;;5057568;28;20195;-96
2021/06/03 07:31:27;;;;;;;3.50;1.10;;;17.00;99.90;;;;;;5056656;28;20201;-96
2021/06/03 07:33:58;;;;;;;3.73;1.00;;;16.90;99.90;;;;;;5028381;28;20228;-96
2021/06/03 07:36:31;;;;;;;2.07;0.70;;;16.90;99.90;;;;;;5027688;28;20233;-96
2021/06/03 07:39:05;;;;;;;4.70;1.03;;;16.90;99.90;;;;;;5022926;28;20218;-96
2021/06/03 07:41:40;;;;;;;2.43;0.90;;;16.80;99.90;;;;;;5007512;28;20205;-96
2021/06/03 07:44:11;;;;;;;4.57;1.27;;;16.80;99.90;;;;;;5029284;28;20212;-96
2021/06/03 07:46:42;;;;;;;3.53;0.70;;;16.70;99.90;;;;;;5035942;28;20217;-96
2021/06/03 07:49:14;;;;;;;3.40;0.77;;;16.70;99.90;;;;;;5023256;28;20214;-96
2021/06/03 07:51:45;;;;;;;2.37;0.87;;;16.60;99.90;;;;;;5034616;28;20231;-96
2021/06/03 07:54:16;;;;;;;6.83;1.37;;;16.50;99.90;;;;;;5048535;28;20213;-96
2021/06/03 07:56:50;;;;;;;2.90;1.13;;;16.60;99.90;;;;;;5044735;28;20211;-96
2021/06/03 07:59:22;;;;;;;4.60;0.80;;;16.50;99.90;;;;;;5041132;28;20231;-95
2021/06/03 08:01:53;;;;;;;4.07;0.90;;;16.50;99.90;;;;;;5024062;28;20260;-95
2021/06/03 08:04:25;;;;;;;4.83;1.30;;;16.50;99.90;;;;;;5061752;28;20228;-95
2021/06/03 08:06:57;;;;;;;5.67;1.10;;;16.50;99.90;;;;;;5037564;28;20247;-95
2021/06/03 08:09:28;;;;;;;2.67;0.90;;;16.40;99.90;;;;;;5021253;28;20667;-95
2021/06/03 08:12:02;;;;;;;2.87;1.07;;;16.30;99.90;;;;;;5034097;28;20248;-96
2021/06/03 08:14:35;;;;;;;3.43;0.90;;;16.30;99.90;;;;;;5039296;28;20208;-95
2021/06/03 08:17:06;;;;;;;2.10;0.83;;;16.30;99.90;;;;;;5038371;28;20586;-95
2021/06/03 08:19:37;;;;;;;2.90;0.87;;;16.30;99.90;;;;;;5034543;28;20291;-96
2021/06/03 08:22:08;;;;;;;3.60;1.00;;;16.30;99.90;;;;;;5020593;28;20269;-95
2021/06/03 08:24:39;;;;;;;3.13;1.03;;;16.30;99.90;;;;;;5018944;28;20210;-94
2021/06/03 08:27:12;;;;;;;3.67;1.00;;;16.30;99.90;;;;;;5017847;28;20273;-95
2021/06/03 08:29:46;;;;;;;2.77;0.90;;;16.30;99.90;;;;;;5029915;28;20264;-94
2021/06/03 08:32:19;;;;;;;4.97;1.07;;;16.30;99.90;;;;;;5037765;28;20207;-95
2021/06/03 08:34:49;;;;;;;3.27;0.90;;;16.30;99.90;;;;;;5037610;28;20578;-95
2021/06/03 08:37:21;;;;;;;4.40;1.00;;;16.30;99.90;;;;;;5035994;28;20228;-95
2021/06/03 08:39:52;;;;;;;3.03;0.97;;;16.30;99.90;;;;;;5035482;28;20291;-95
2021/06/03 08:42:26;;;;;;;2.90;1.10;;;16.20;99.90;;;;;;5003436;28;20292;-95
2021/06/03 08:44:57;;;;;;;3.03;1.00;;;16.20;99.90;;;;;;5036853;28;20300;-95
2021/06/03 08:47:29;;;;;;;6.80;0.90;;;16.20;99.90;;;;;;5019451;28;20220;-95
2021/06/03 08:50:02;;;;;;;3.20;1.00;;;16.10;99.90;;;;;;5040145;28;20601;-95
2021/06/03 08:52:43;;;;;;;5.63;1.20;;;16.10;99.90;;;;;;5030275;28;20224;-96
2021/06/03 08:58:08;;;;;;;2.47;0.80;;;16.00;99.90;;;;;;5039937;28;20228;-96
2021/06/03 09:00:41;;;;;;;6.10;1.10;;;16.00;99.90;;;;;;5023523;28;20205;-96
2021/06/03 09:03:13;;;;;;;3.57;1.00;;;16.00;99.90;;;;;;5028530;28;20218;-96
2021/06/03 09:05:46;;;;;;;4.03;0.93;;;15.90;99.90;;;;;;5024306;28;20721;-94
2021/06/03 09:08:23;;;;;;;3.03;0.83;;;15.90;99.90;;;;;;5035560;28;20280;-95
2021/06/03 09:10:56;;;;;;;4.57;0.90;;;15.80;99.90;;;;;;5040516;28;20294;-95
2021/06/03 09:13:31;;;;;;;3.23;1.00;;;15.80;99.90;;;;;;5003749;28;20633;-96
2021/06/03 09:16:13;;;;;;;3.53;0.90;;;15.70;99.90;;;;;;5003808;28;20213;-96
2021/06/03 09:18:46;;;;;;;2.13;0.77;;;15.70;99.90;;;;;;5021609;28;20275;-95
2021/06/03 09:21:18;;;;;;;3.47;0.90;;;15.60;99.90;;;;;;5022394;28;20236;-95
2021/06/03 09:23:56;;;;;;;2.90;0.77;;;15.60;99.90;;;;;;5043911;28;20596;-96
2021/06/03 09:26:29;;;;;;;4.93;1.00;;;15.60;99.90;;;;;;5043187;28;20208;-95
2021/06/03 09:29:03;;;;;;;3.73;0.80;;;15.60;99.90;;;;;;5041371;28;20246;-95
2021/06/03 09:31:35;;;;;;;2.80;0.90;;;15.50;99.90;;;;;;5032649;28;20318;-94
2021/06/03 09:34:08;;;;;;;1.90;0.93;;;15.50;99.90;;;;;;5048382;28;20268;-94
2021/06/03 09:36:46;;;;;;;3.43;1.07;;;15.50;99.90;;;;;;5049517;28;20219;-95
2021/06/03 09:39:20;;;;;;;2.60;1.00;;;15.50;99.90;;;;;;5048151;28;20240;-94
2021/06/03 09:41:56;;;;;;;3.53;1.20;;;15.40;99.90;;;;;;5048349;28;20209;-94
2021/06/03 09:44:34;;;;;;;2.13;0.80;;;15.40;99.90;;;;;;5048661;28;20208;-94
2021/06/03 09:47:25;;;;;;;3.23;1.10;;;15.40;99.90;;;;;;5039269;28;20309;-94
2021/06/03 09:49:59;;;;;;;4.23;0.80;;;15.40;99.90;;;;;;5038299;28;20863;-94
2021/06/03 09:52:33;;;;;;;3.87;0.90;;;15.40;99.90;;;;;;5021588;28;20204;-94
2021/06/03 09:55:08;;;;;;;3.87;1.50;;;15.40;99.90;;;;;;5059180;28;20200;-94
2021/06/03 09:57:41;;;;;;;2.40;1.00;;;15.40;99.90;;;;;;5042906;28;20210;-96
2021/06/03 10:00:17;;;;;;;4.33;1.13;;;15.30;99.90;;;;;;5019547;28;20244;-95
2021/06/03 10:02:48;;;;;;;5.17;1.07;;;15.30;99.90;;;;;;5021276;28;20213;-95
2021/06/03 10:05:22;;;;;;;2.53;0.60;;;15.30;99.90;;;;;;5021650;28;20233;-95
2021/06/03 10:07:56;;;;;;;2.30;0.70;;;15.30;99.90;;;;;;5041125;28;20216;-95
2021/06/03 10:10:28;;;;;;;2.63;0.80;;;15.20;99.90;;;;;;5039542;28;20224;-95
2021/06/03 10:13:05;;;;;;;1.90;0.90;;;15.20;99.90;;;;;;5041020;28;20200;-95
2021/06/03 10:15:40;;;;;;;5.27;1.13;;;15.30;99.90;;;;;;5029897;28;20205;-96
2021/06/03 10:18:14;;;;;;;5.27;1.03;;;15.20;99.90;;;;;;5038639;28;20295;-95
2021/06/03 10:20:47;;;;;;;2.17;0.93;;;15.20;99.90;;;;;;5039149;28;20231;-94
2021/06/03 10:23:19;;;;;;;2.17;1.03;;;15.20;99.90;;;;;;5039108;28;20281;-95
2021/06/03 10:25:53;;;;;;;4.20;1.07;;;15.20;99.90;;;;;;5040419;28;20299;-95
2021/06/03 10:28:25;;;;;;;3.37;1.07;;;15.10;99.90;;;;;;5041598;28;20245;-95
2021/06/03 10:31:01;;;;;;;1.97;0.70;;;15.10;99.90;;;;;;5021314;28;20252;-95
2021/06/03 10:33:35;;;;;;;2.13;0.77;;;15.10;99.90;;;;;;5025980;28;20296;-94
2021/06/03 10:36:09;;;;;;;3.33;1.10;;;15.20;99.90;;;;;;5018019;28;20578;-94
2021/06/03 10:38:40;;;;;;;3.43;0.70;;;15.20;99.90;;;;;;5017761;28;20245;-94
2021/06/03 10:41:14;;;;;;;2.13;0.80;;;15.20;99.90;;;;;;5020056;28;20221;-94
2021/06/03 10:43:45;;;;;;;2.30;0.90;;;15.20;99.90;;;;;;5038454;28;20236;-94
2021/06/03 10:46:19;;;;;;;4.70;1.10;;;15.20;99.90;;;;;;5038373;28;20667;-94
2021/06/03 10:48:50;;;;;;;2.17;0.97;;;15.20;99.90;;;;;;5038373;28;20216;-94
2021/06/03 10:51:21;;;;;;;2.00;0.83;;;15.20;99.90;;;;;;5038619;28;20271;-93
2021/06/03 10:53:51;;;;;;;2.37;0.73;;;15.20;99.90;;;;;;5042678;28;20247;-94
2021/06/03 10:56:25;;;;;;;1.43;0.70;;;15.20;99.90;;;;;;5045138;28;20237;-94
2021/06/03 10:58:56;;;;;;;3.13;1.10;;;15.20;99.90;;;;;;5044418;28;20285;-93
2021/06/03 11:01:31;;;;;;;1.17;0.60;;;15.10;99.90;;;;;;5052914;28;20216;-94
2021/06/03 11:04:05;;;;;;;4.20;0.83;;;15.10;99.90;;;;;;5056773;28;20224;-95
2021/06/03 11:06:45;;;;;;;1.70;0.70;;;15.10;99.90;;;;;;5057085;28;20197;-94
2021/06/03 11:09:28;;;;;;;6.97;1.00;;;15.10;99.90;;;;;;5041256;28;20220;-95
2021/06/03 11:12:13;;;;;;;2.77;0.70;;;15.10;99.90;;;;;;5020105;28;20316;-95
2021/06/03 11:15:00;;;;;;;5.07;0.73;;;15.00;99.90;;;;;;4992650;28;20209;-95
2021/06/03 11:18:09;;;;;;;2.07;0.97;;;14.90;99.90;;;;;;5038591;28;20239;-95
2021/06/03 11:20:53;;;;;;;2.83;0.73;;;14.90;99.90;;;;;;5054329;28;20220;-95
2021/06/03 11:23:49;;;;;;;2.37;0.97;;;14.80;99.90;;;;;;5057915;28;20197;-95
2021/06/03 11:26:55;;;;;;;2.30;0.70;;;14.80;99.90;;;;;;5050420;28;20197;-94
2021/06/03 11:29:28;;;;;;;1.13;0.80;;;14.90;99.90;;;;;;5040545;28;20208;-94
2021/06/03 11:32:21;;;;;;;3.57;0.60;;;14.80;99.90;;;;;;5056959;28;20251;-93
2021/06/03 11:34:53;;;;;;;3.33;0.90;;;14.80;99.90;;;;;;5057329;28;20209;-94
2021/06/03 11:37:27;;;;;;;2.83;0.70;;;14.70;99.90;;;;;;5047259;28;20237;-95
2021/06/03 11:40:00;;;;;;;1.70;0.87;;;14.70;99.90;;;;;;5056012;28;20250;-94
2021/06/03 11:42:33;;;;;;;3.57;0.80;;;14.70;99.90;;;;;;5046518;28;20225;-94
2021/06/03 11:45:30;;;;;;;3.43;0.83;;;14.70;99.90;;;;;;5037124;28;20608;-94
2021/06/03 11:48:18;;;;;;;2.77;1.00;;;14.60;99.90;;;;;;5036431;28;20221;-94
2021/06/03 11:51:10;;;;;;;1.50;0.80;;;14.60;99.90;;;;;;5035778;28;20702;-94
2021/06/03 11:53:52;;;;;;;3.43;1.00;;;14.60;99.90;;;;;;5026944;28;20678;-94
2021/06/03 11:56:27;;;;;;;2.83;0.83;;;14.50;99.90;;;;;;5035733;28;20619;-94
2021/06/03 11:58:58;;;;;;;5.37;0.90;;;14.50;99.90;;;;;;5036015;28;20656;-94
2021/06/03 12:01:37;;;;;;;2.27;0.93;;;14.50;99.90;;;;;;5034438;28;20236;-95
2021/06/03 12:04:12;;;;;;;2.20;0.70;;;14.40;99.90;;;;;;5036240;28;20264;-95
2021/06/03 12:06:45;;;;;;;1.93;1.00;;;14.50;99.90;;;;;;5018532;28;20292;-94
2021/06/03 12:09:24;;;;;;;3.00;0.93;;;14.50;99.90;;;;;;5035802;28;20291;-94
2021/06/03 12:11:57;;;;;;;3.07;1.07;;;14.50;99.90;;;;;;5028507;28;20596;-94
2021/06/03 12:14:29;;;;;;;3.23;1.00;;;14.50;99.90;;;;;;5035940;28;20216;-94
2021/06/03 12:17:04;;;;;;;1.67;0.97;;;14.50;99.90;;;;;;5018696;28;20303;-94
2021/06/03 12:19:37;;;;;;;2.57;0.93;;;14.50;99.90;;;;;;5035036;28;20244;-94
2021/06/03 12:22:10;;;;;;;2.50;1.07;;;14.50;99.90;;;;;;5035905;28;20245;-94
2021/06/03 12:24:46;;;;;;;5.63;1.13;;;14.50;99.90;;;;;;5035969;28;20208;-94
2021/06/03 12:27:23;;;;;;;2.40;0.80;;;14.50;99.90;;;;;;5036737;28;20692;-94
2021/06/03 12:29:57;;;;;;;2.87;1.00;;;14.50;99.90;;;;;;5034798;28;20609;-94
2021/06/03 12:32:29;;;;;;;2.53;1.00;;;14.50;99.90;;;;;;5035284;28;20324;-94
2021/06/03 12:35:02;;;;;;;2.07;1.13;;;14.50;99.90;;;;;;5035013;28;20315;-94
2021/06/03 12:37:36;;;;;;;3.20;1.23;;;14.40;99.90;;;;;;5035326;28;20296;-93
2021/06/03 12:40:23;;;;;;;4.50;1.13;;;14.20;99.90;;;;;;5000963;28;20315;-93
2021/06/03 12:43:02;;;;;;;3.07;1.00;;;14.20;99.90;;;;;;5017914;28;20208;-93
2021/06/03 12:45:35;;;;;;;2.80;1.00;;;14.10;99.90;;;;;;5028272;28;20252;-93
2021/06/03 12:48:08;;;;;;;4.23;0.60;;;14.10;99.90;;;;;;5015459;28;20636;-93
2021/06/03 12:51:11;;;;;;;1.90;0.90;;;14.10;99.90;;;;;;5017762;28;20244;-94
2021/06/03 12:53:49;;;;;;;4.10;0.90;;;14.10;99.90;;;;;;5039504;28;20205;-94
2021/06/03 12:56:24;;;;;;;3.13;0.90;;;14.10;99.90;;;;;;5018572;28;20232;-94
2021/06/03 12:58:55;;;;;;;1.57;0.70;;;14.20;99.90;;;;;;5035390;28;20294;-94
2021/06/03 13:01:26;;;;;;;3.33;0.70;;;14.30;99.90;;;;;;5030371;28;20232;-94
2021/06/03 13:03:59;;;;;;;4.17;1.13;;;14.30;99.90;;;;;;5030836;28;20218;-95
2021/06/03 13:06:30;;;;;;;2.00;1.00;;;14.30;99.90;;;;;;5018457;28;20244;-95
2021/06/03 13:09:01;;;;;;;3.23;0.70;;;14.40;99.90;;;;;;5019123;28;20224;-95
2021/06/03 13:11:36;;;;;;;2.53;1.07;;;14.40;99.90;;;;;;5034617;28;20257;-95
2021/06/03 13:14:16;;;;;;;2.90;0.73;;;14.50;99.90;;;;;;5035843;28;20208;-95
2021/06/03 13:16:48;;;;;;;2.20;0.90;;;14.50;99.90;;;;;;5034993;28;20240;-95
2021/06/03 13:19:24;;;;;;;3.13;0.87;;;14.60;99.90;;;;;;5035595;28;20215;-95
2021/06/03 13:21:58;;;;;;;0.80;0.60;;;14.70;99.90;;;;;;5035006;28;20208;-95
2021/06/03 13:24:31;;;;;;;3.93;0.70;;;14.80;99.90;;;;;;5034284;28;20641;-95
2021/06/03 13:27:08;;;;;;;3.13;0.90;;;14.80;99.90;;;;;;4999825;28;20266;-95
2021/06/03 13:29:43;;;;;;;1.43;0.80;;;14.90;99.90;;;;;;5020976;28;20213;-94
2021/06/03 13:32:14;;;;;;;2.57;0.80;;;15.00;99.90;;;;;;5035995;28;20417;-95
2021/06/03 13:35:01;;;;;;;2.27;0.80;;;15.00;99.90;;;;;;5037335;28;20266;-95
2021/06/03 13:37:35;;;;;;;3.17;0.80;;;15.10;99.90;;;;;;5022368;28;20274;-94
2021/06/03 13:40:09;;;;;;;4.97;0.87;;;15.10;99.90;;;;;;5042905;28;20189;-94
2021/06/03 13:42:45;;;;;;;1.63;0.53;;;15.20;99.90;;;;;;5036052;28;20204;-94
2021/06/03 13:45:29;;;;;;;1.30;0.60;;;15.30;99.90;;;;;;5036730;28;20217;-94
2021/06/03 13:48:01;;;;;;;3.43;0.90;;;15.50;99.90;;;;;;5013904;28;20208;-94
2021/06/03 13:50:41;;;;;;;8.33;1.20;;;15.50;99.90;;;;;;5038901;28;20213;-94
2021/06/03 13:53:15;;;;;;;3.13;0.80;;;15.60;99.90;;;;;;5071449;23;20706;-95
2021/06/03 13:55:50;;;;;;;4.20;1.10;;;15.70;99.90;;;;;;5039041;28;20275;-94
2021/06/03 13:58:47;;;;;;;2.33;1.07;;;15.70;99.90;;;;;;5020780;28;20208;-94
2021/06/03 14:01:21;;;;;;;4.33;1.00;;;15.80;99.90;;;;;;5037470;28;20259;-94
2021/06/03 14:03:54;;;;;;;2.47;1.20;;;15.80;99.90;;;;;;5039008;28;20209;-93
2021/06/03 14:06:31;;;;;;;1.37;1.03;;;15.90;99.90;;;;;;5022635;28;20241;-95
2021/06/03 14:09:02;;;;;;;3.57;1.10;;;16.00;99.90;;;;;;5021057;28;20266;-95
2021/06/03 14:11:45;;;;;;;4.13;1.53;;;16.00;99.90;;;;;;5018613;28;22102;-94
2021/06/03 14:14:20;;;;;;;4.70;1.50;;;16.00;99.90;;;;;;5029095;28;20205;-94
2021/06/03 14:16:56;;;;;;;3.33;1.20;;;16.00;99.90;;;;;;5025080;28;20255;-94